LJPZ/POW METAR and TAF weather

Enter ICAO airport designator
Station Type Date Time Source
LJPZ METAR 2021/05/15 02:30 UTC NOAA

LJPZ 150230Z AUTO 13002KT 9999 -SHRA SCT075/// BKN090/// OVC100/// 13/11 Q1010


Station Type Date Time Source
LJPZ Decoded METAR 2021/05/15 02:30 UTC NOAA

Portoroz, Slovenia (LJPZ) 45-31N 013-34E
May 14, 2021 - 10:30 PM EDT / 2021.05.15 0230 UTC
Wind: from the SE (130 degrees) at 2 MPH (2 KT):0
Visibility: greater than 7 mile(s):0
Sky conditions: overcast
Weather: light rain showers
Temperature: 55 F (13 C)
Dew Point: 51 F (11 C)
Relative Humidity: 87%
Pressure (altimeter): 29.83 in. Hg (1010 hPa)
ob: LJPZ 150230Z AUTO 13002KT 9999 -SHRA SCT075/// BKN090/// OVC100/// 13/11 Q1010
cycle: 2

Station Type Date Time Source
LJPZ TAF 2020/09/27 12:21 UTC NOAA

TAF TAF LJPZ 271100Z 2712/2821 30003KT 9999 FEW050 PROB30
TEMPO 2712/2718 -SHRA SCT040TCU BKN070
BECMG 2718/2720 06012G25KT RA

Example: see airport list